createdAt,value
2018-11-11T00:00:04.143Z,11.70
2018-11-11T00:02:39.431Z,11.80
2018-11-11T00:05:14.901Z,11.80
2018-11-11T00:07:50.466Z,11.90
2018-11-11T00:10:26.014Z,11.90
2018-11-11T00:13:01.729Z,11.80
2018-11-11T00:15:37.378Z,11.80
2018-11-11T00:18:12.622Z,11.90
2018-11-11T00:20:48.074Z,11.80
2018-11-11T00:23:23.625Z,11.80
2018-11-11T00:25:58.957Z,11.90
2018-11-11T00:28:34.161Z,11.90
2018-11-11T00:31:09.551Z,11.90
2018-11-11T00:33:45.085Z,11.90
2018-11-11T00:36:20.408Z,11.90
2018-11-11T00:38:55.988Z,11.90
2018-11-11T00:41:31.281Z,11.90
2018-11-11T00:44:07.986Z,12.00
2018-11-11T00:46:43.120Z,12.00
2018-11-11T00:49:18.421Z,12.00
2018-11-11T00:51:53.788Z,12.00
2018-11-11T00:54:29.355Z,12.00
2018-11-11T00:57:04.879Z,12.00
2018-11-11T00:59:40.441Z,12.00
2018-11-11T01:02:15.864Z,12.00
2018-11-11T01:04:51.103Z,12.00
2018-11-11T01:07:26.673Z,12.10
2018-11-11T01:10:01.932Z,12.10
2018-11-11T01:12:37.123Z,12.00
2018-11-11T01:15:14.041Z,12.00
2018-11-11T01:17:49.334Z,12.10
2018-11-11T01:20:24.613Z,12.10
2018-11-11T01:23:00.141Z,12.10
2018-11-11T01:25:35.770Z,12.10
2018-11-11T01:28:11.211Z,12.10
2018-11-11T01:30:46.701Z,12.10
2018-11-11T01:33:22.146Z,12.10
2018-11-11T01:35:57.671Z,12.10
2018-11-11T01:38:33.240Z,12.20
2018-11-11T01:41:09.045Z,12.20
2018-11-11T01:43:44.615Z,12.20
2018-11-11T01:46:20.241Z,12.20
2018-11-11T01:48:55.601Z,12.20
2018-11-11T01:51:30.960Z,12.20
2018-11-11T01:54:06.504Z,12.20
2018-11-11T01:56:41.864Z,12.20
2018-11-11T01:59:17.253Z,12.20
2018-11-11T02:01:52.821Z,12.10
2018-11-11T02:04:28.378Z,12.20
2018-11-11T02:07:03.803Z,12.20
2018-11-11T02:09:39.252Z,12.20
2018-11-11T02:12:14.504Z,12.20
2018-11-11T02:14:50.027Z,12.20
2018-11-11T02:17:25.581Z,12.10
2018-11-11T02:20:01.127Z,12.20
2018-11-11T02:22:36.582Z,12.20
2018-11-11T02:25:12.169Z,12.10
2018-11-11T02:27:47.743Z,12.10
2018-11-11T02:30:23.224Z,12.10
2018-11-11T02:32:58.464Z,12.10
2018-11-11T02:35:33.763Z,12.10
2018-11-11T02:38:09.131Z,12.10
2018-11-11T02:40:44.484Z,12.10
2018-11-11T02:43:19.844Z,12.10
2018-11-11T02:45:55.587Z,12.10
2018-11-11T02:48:31.006Z,12.20
2018-11-11T02:51:06.473Z,12.10
2018-11-11T02:53:41.872Z,12.10
2018-11-11T02:56:17.344Z,12.10
2018-11-11T02:58:52.583Z,12.10
2018-11-11T03:01:27.875Z,12.10
2018-11-11T03:04:03.243Z,12.10
2018-11-11T03:06:38.391Z,12.10
2018-11-11T03:09:14.220Z,12.10
2018-11-11T03:11:49.491Z,12.10
2018-11-11T03:14:24.825Z,12.10
2018-11-11T03:17:00.474Z,12.10
2018-11-11T03:19:35.723Z,12.00
2018-11-11T03:22:10.943Z,12.00
2018-11-11T03:24:46.282Z,12.00
2018-11-11T03:27:21.665Z,12.00
2018-11-11T03:29:57.102Z,12.00
2018-11-11T03:32:32.518Z,12.00
2018-11-11T03:35:09.642Z,12.00
2018-11-11T03:37:45.803Z,12.00
2018-11-11T03:40:21.862Z,12.00
2018-11-11T03:42:57.494Z,12.10
2018-11-11T03:45:32.835Z,12.10
2018-11-11T03:48:08.384Z,12.00
2018-11-11T03:50:43.912Z,12.10
2018-11-11T03:53:19.362Z,12.00
2018-11-11T03:55:54.793Z,12.10
2018-11-11T03:58:30.318Z,12.10
2018-11-11T04:01:05.978Z,12.10
2018-11-11T04:03:41.557Z,12.10
2018-11-11T04:06:17.074Z,12.10
2018-11-11T04:08:52.664Z,12.10
2018-11-11T04:11:28.163Z,12.00
2018-11-11T04:14:03.734Z,12.10
2018-11-11T04:16:39.489Z,12.10
2018-11-11T04:19:15.035Z,12.00
2018-11-11T04:21:50.463Z,12.00
2018-11-11T04:24:26.049Z,12.10
2018-11-11T04:27:01.543Z,12.10
2018-11-11T04:29:37.192Z,12.00
2018-11-11T04:32:12.521Z,12.00
2018-11-11T04:34:47.774Z,12.00
2018-11-11T04:37:23.213Z,12.00
2018-11-11T04:39:58.562Z,12.10
2018-11-11T04:42:33.995Z,12.00
2018-11-11T04:45:11.174Z,12.00
2018-11-11T04:47:47.013Z,12.10
2018-11-11T04:50:22.503Z,12.00
2018-11-11T04:52:57.938Z,12.00
2018-11-11T04:55:33.382Z,12.00
2018-11-11T04:58:08.615Z,12.00
2018-11-11T05:00:44.102Z,12.00
2018-11-11T05:03:19.502Z,11.90
2018-11-11T05:05:54.723Z,11.90
2018-11-11T05:08:30.271Z,11.90
2018-11-11T05:11:05.632Z,11.90
2018-11-11T05:13:40.984Z,11.90
2018-11-11T05:16:16.546Z,11.90
2018-11-11T05:18:51.874Z,12.00
2018-11-11T05:21:27.230Z,12.00
2018-11-11T05:24:04.080Z,12.00
2018-11-11T05:26:39.472Z,12.00
2018-11-11T05:29:15.030Z,12.00
2018-11-11T05:31:50.241Z,12.00
2018-11-11T05:34:25.614Z,12.00
2018-11-11T05:37:01.000Z,12.00
2018-11-11T05:39:36.253Z,12.00
2018-11-11T05:42:11.694Z,12.00
2018-11-11T05:44:47.124Z,12.00
2018-11-11T05:47:22.673Z,12.00
2018-11-11T05:49:58.000Z,12.00
2018-11-11T05:52:33.341Z,12.00
2018-11-11T05:55:09.266Z,12.00
2018-11-11T05:57:44.703Z,12.00
2018-11-11T06:00:20.301Z,12.00
2018-11-11T06:02:56.245Z,12.10
2018-11-11T06:05:31.910Z,12.10
2018-11-11T06:08:07.273Z,12.20
2018-11-11T06:10:42.685Z,12.10
2018-11-11T06:13:18.337Z,12.20
2018-11-11T06:15:54.931Z,12.20
2018-11-11T06:18:30.600Z,12.10
2018-11-11T06:21:06.269Z,12.20
2018-11-11T06:23:42.062Z,12.10
2018-11-11T06:26:17.605Z,12.10
2018-11-11T06:28:53.133Z,12.20
2018-11-11T06:31:28.773Z,12.20
2018-11-11T06:34:04.374Z,12.20
2018-11-11T06:36:39.560Z,12.20
2018-11-11T06:39:15.075Z,12.30
2018-11-11T06:41:50.472Z,12.30
2018-11-11T06:44:26.060Z,12.20
2018-11-11T06:47:01.795Z,12.20
2018-11-11T06:49:37.300Z,12.20
2018-11-11T06:52:12.563Z,12.20
2018-11-11T06:54:47.924Z,12.20
2018-11-11T06:57:23.333Z,12.20
2018-11-11T06:59:58.593Z,12.20
2018-11-11T07:02:36.373Z,12.20
2018-11-11T07:05:11.831Z,12.20
2018-11-11T07:07:47.491Z,12.20
2018-11-11T07:10:22.844Z,12.20
2018-11-11T07:12:58.563Z,12.20
2018-11-11T07:15:34.059Z,12.20
2018-11-11T07:18:09.333Z,12.30
2018-11-11T07:20:44.596Z,12.30
2018-11-11T07:23:19.804Z,12.30
2018-11-11T07:25:55.286Z,12.30
2018-11-11T07:28:30.936Z,12.40
2018-11-11T07:31:07.015Z,12.40
2018-11-11T07:33:42.294Z,12.40
2018-11-11T07:36:17.572Z,12.40
2018-11-11T07:38:52.895Z,12.50
2018-11-11T07:41:28.364Z,12.50
2018-11-11T07:44:10.436Z,12.60
2018-11-11T07:46:45.901Z,12.60
2018-11-11T07:49:21.431Z,12.70
2018-11-11T07:51:56.940Z,12.70
2018-11-11T07:54:32.338Z,12.80
2018-11-11T07:57:07.692Z,12.90
2018-11-11T07:59:43.033Z,12.90
2018-11-11T08:02:18.482Z,13.00
2018-11-11T08:04:53.665Z,13.00
2018-11-11T08:07:29.031Z,13.00
2018-11-11T08:10:04.351Z,13.00
2018-11-11T08:12:39.663Z,13.00
2018-11-11T08:15:14.983Z,13.10
2018-11-11T08:17:50.433Z,13.00
2018-11-11T08:20:25.805Z,13.10
2018-11-11T08:23:01.185Z,13.10
2018-11-11T08:25:36.874Z,13.20
2018-11-11T08:28:12.204Z,13.10
2018-11-11T08:30:47.638Z,13.10
2018-11-11T08:33:22.907Z,13.10
2018-11-11T08:35:58.351Z,13.10
2018-11-11T08:38:33.905Z,13.00
2018-11-11T08:41:09.305Z,13.00
2018-11-11T08:43:44.612Z,12.90
2018-11-11T08:46:20.317Z,12.90
2018-11-11T08:48:55.718Z,12.80
2018-11-11T08:51:31.165Z,12.80
2018-11-11T08:54:06.685Z,12.80
2018-11-11T08:56:42.033Z,12.80
2018-11-11T08:59:17.524Z,12.80
2018-11-11T09:01:52.805Z,12.90
2018-11-11T09:04:28.326Z,12.80
2018-11-11T09:07:03.605Z,12.90
2018-11-11T09:09:39.042Z,13.00
2018-11-11T09:12:14.611Z,13.00
2018-11-11T09:14:49.919Z,13.10
2018-11-11T09:17:25.200Z,13.10
2018-11-11T09:20:00.636Z,13.10
2018-11-11T09:22:36.251Z,13.00
2018-11-11T09:25:11.937Z,13.00
2018-11-11T09:27:47.414Z,13.00
2018-11-11T09:30:23.106Z,13.00
2018-11-11T09:32:58.574Z,13.00
2018-11-11T09:35:33.873Z,13.10
2018-11-11T09:38:09.398Z,13.20
2018-11-11T09:40:44.995Z,13.20
2018-11-11T09:43:20.711Z,13.10
2018-11-11T09:45:56.031Z,13.10
2018-11-11T09:48:31.394Z,13.20
2018-11-11T09:51:06.955Z,13.20
2018-11-11T09:53:42.258Z,13.20
2018-11-11T09:56:17.580Z,13.30
2018-11-11T09:58:52.845Z,13.20
2018-11-11T10:01:28.240Z,13.30
2018-11-11T10:04:07.724Z,13.20
2018-11-11T10:06:47.526Z,13.30
2018-11-11T10:09:45.957Z,13.40
2018-11-11T10:12:27.448Z,13.40
2018-11-11T10:15:12.505Z,13.40
2018-11-11T10:17:51.924Z,13.40
2018-11-11T10:20:32.451Z,13.40
2018-11-11T10:23:15.010Z,13.40
2018-11-11T10:26:08.577Z,13.40
2018-11-11T10:28:54.195Z,13.40
2018-11-11T10:31:49.773Z,13.50
2018-11-11T10:34:31.468Z,13.50
2018-11-11T10:37:29.532Z,13.50
2018-11-11T10:40:44.208Z,13.60
2018-11-11T10:44:24.757Z,13.50
2018-11-11T10:47:03.429Z,13.50
2018-11-11T10:49:42.466Z,13.50
2018-11-11T10:52:18.061Z,13.50
2018-11-11T10:54:53.363Z,13.50
2018-11-11T10:57:29.006Z,13.60
2018-11-11T11:00:04.540Z,13.60
2018-11-11T11:02:45.081Z,13.60
2018-11-11T11:05:20.520Z,13.70
2018-11-11T11:07:56.356Z,13.70
2018-11-11T11:10:31.906Z,13.70
2018-11-11T11:13:07.437Z,13.70
2018-11-11T11:15:42.924Z,13.70
2018-11-11T11:18:18.258Z,13.70
2018-11-11T11:20:53.486Z,13.70
2018-11-11T11:23:28.944Z,13.70
2018-11-11T11:26:04.488Z,13.70
2018-11-11T11:28:39.845Z,13.80
2018-11-11T11:31:15.447Z,13.90
2018-11-11T11:33:50.905Z,13.90
2018-11-11T11:36:27.023Z,14.00
2018-11-11T11:39:03.111Z,14.00
2018-11-11T11:41:38.722Z,14.10
2018-11-11T11:44:14.515Z,14.20
2018-11-11T11:46:49.873Z,14.30
2018-11-11T11:49:25.735Z,14.40
2018-11-11T11:52:01.545Z,14.40
2018-11-11T11:54:36.941Z,14.50
2018-11-11T11:57:12.419Z,14.50
2018-11-11T11:59:47.845Z,14.60
2018-11-11T12:02:29.893Z,14.50
2018-11-11T12:05:05.815Z,14.50
2018-11-11T12:07:41.305Z,14.50
2018-11-11T12:10:16.760Z,14.60
2018-11-11T12:12:52.451Z,14.50
2018-11-11T12:15:28.067Z,14.70
2018-11-11T12:18:03.703Z,14.80
2018-11-11T12:20:39.465Z,14.80
2018-11-11T12:23:15.431Z,14.90
2018-11-11T12:25:50.875Z,14.90
2018-11-11T12:28:26.286Z,14.80
2018-11-11T12:31:01.862Z,14.70
2018-11-11T12:33:37.511Z,14.80
2018-11-11T12:36:13.122Z,14.90
2018-11-11T12:38:48.500Z,15.00
2018-11-11T12:41:23.993Z,15.00
2018-11-11T12:43:59.595Z,14.90
2018-11-11T12:46:35.309Z,14.90
2018-11-11T12:49:10.932Z,14.80
2018-11-11T12:51:46.667Z,14.90
2018-11-11T12:54:22.054Z,14.80
2018-11-11T12:56:57.297Z,14.80
2018-11-11T12:59:32.663Z,15.00
2018-11-11T13:02:08.080Z,15.50
2018-11-11T13:04:43.681Z,15.50
2018-11-11T13:07:19.084Z,15.20
2018-11-11T13:09:54.623Z,14.90
2018-11-11T13:12:30.305Z,14.70
2018-11-11T13:15:05.995Z,14.70
2018-11-11T13:17:42.018Z,14.60
2018-11-11T13:20:18.504Z,14.60
2018-11-11T13:22:54.260Z,14.60
2018-11-11T13:25:29.723Z,14.50
2018-11-11T13:28:05.494Z,14.50
2018-11-11T13:30:40.784Z,14.40
2018-11-11T13:33:16.383Z,14.20
2018-11-11T13:35:51.903Z,14.20
2018-11-11T13:38:28.040Z,14.10
2018-11-11T13:41:03.616Z,13.80
2018-11-11T13:43:39.388Z,13.70
2018-11-11T13:46:14.700Z,13.60
2018-11-11T13:48:50.585Z,13.40
2018-11-11T13:51:26.047Z,13.30
2018-11-11T13:54:01.454Z,13.10
2018-11-11T13:56:37.160Z,13.00
2018-11-11T13:59:12.359Z,13.00
2018-11-11T14:01:47.786Z,12.90
2018-11-11T14:04:23.063Z,12.90
2018-11-11T14:06:58.562Z,12.90
2018-11-11T14:09:33.992Z,13.00
2018-11-11T14:12:09.487Z,13.10
2018-11-11T14:14:45.141Z,13.10
2018-11-11T14:17:20.561Z,13.00
2018-11-11T14:19:56.034Z,13.00
2018-11-11T14:22:31.421Z,12.90
2018-11-11T14:25:09.227Z,12.90
2018-11-11T14:27:45.156Z,12.70
2018-11-11T14:30:21.914Z,12.50
2018-11-11T14:32:58.126Z,12.50
2018-11-11T14:35:33.615Z,12.40
2018-11-11T14:38:09.095Z,12.40
2018-11-11T14:40:44.626Z,12.40
2018-11-11T14:43:20.034Z,12.40
2018-11-11T14:45:55.343Z,12.40
2018-11-11T14:48:30.733Z,12.50
2018-11-11T14:51:06.577Z,12.40
2018-11-11T14:53:42.220Z,12.50
2018-11-11T14:56:17.725Z,12.50
2018-11-11T14:58:53.596Z,12.50
2018-11-11T15:01:28.826Z,12.50
2018-11-11T15:04:04.033Z,12.50
2018-11-11T15:06:39.513Z,12.50
2018-11-11T15:09:14.893Z,12.50
2018-11-11T15:11:50.457Z,12.50
2018-11-11T15:14:26.091Z,12.50
2018-11-11T15:17:01.768Z,12.50
2018-11-11T15:19:37.320Z,12.50
2018-11-11T15:22:12.744Z,12.50
2018-11-11T15:24:49.222Z,12.50
2018-11-11T15:27:24.786Z,12.50
2018-11-11T15:30:00.416Z,12.50
2018-11-11T15:32:35.924Z,12.50
2018-11-11T15:35:11.535Z,12.40
2018-11-11T15:37:46.850Z,12.40
2018-11-11T15:40:23.623Z,12.40
2018-11-11T15:42:59.469Z,12.40
2018-11-11T15:45:35.532Z,12.40
2018-11-11T15:48:11.051Z,12.40
2018-11-11T15:50:46.466Z,12.40
2018-11-11T15:53:22.049Z,12.30
2018-11-11T15:55:57.685Z,12.30
2018-11-11T15:58:33.069Z,12.20
2018-11-11T16:01:08.696Z,12.20
2018-11-11T16:03:44.100Z,12.20
2018-11-11T16:06:19.536Z,12.20
2018-11-11T16:08:55.004Z,12.20
2018-11-11T16:11:30.353Z,12.10
2018-11-11T16:14:06.095Z,12.10
2018-11-11T16:16:41.527Z,12.10
2018-11-11T16:19:16.844Z,12.00
2018-11-11T16:21:52.168Z,12.00
2018-11-11T16:24:27.453Z,11.90
2018-11-11T16:27:02.947Z,11.90
2018-11-11T16:29:38.436Z,11.90
2018-11-11T16:32:13.931Z,11.90
2018-11-11T16:34:49.140Z,11.90
2018-11-11T16:37:24.465Z,11.90
2018-11-11T16:39:59.645Z,11.90
2018-11-11T16:42:35.140Z,11.90
2018-11-11T16:45:11.880Z,11.90
2018-11-11T16:47:47.272Z,11.90
2018-11-11T16:50:24.752Z,11.90
2018-11-11T16:53:01.665Z,11.90
2018-11-11T16:55:37.793Z,11.90
2018-11-11T16:58:13.202Z,11.90
2018-11-11T17:00:48.890Z,11.90
2018-11-11T17:03:24.271Z,11.90
2018-11-11T17:05:59.631Z,11.90
2018-11-11T17:08:35.009Z,11.70
2018-11-11T17:11:10.490Z,11.70
2018-11-11T17:13:45.960Z,11.60
2018-11-11T17:16:21.416Z,11.60
2018-11-11T17:18:56.973Z,11.50
2018-11-11T17:21:32.742Z,11.40
2018-11-11T17:24:07.890Z,11.50
2018-11-11T17:26:43.309Z,11.50
2018-11-11T17:29:18.782Z,11.50
2018-11-11T17:31:54.116Z,11.50
2018-11-11T17:34:29.675Z,11.50
2018-11-11T17:37:05.236Z,11.50
2018-11-11T17:39:40.530Z,11.60
2018-11-11T17:42:15.794Z,11.60
2018-11-11T17:44:51.119Z,11.60
2018-11-11T17:47:26.557Z,11.60
2018-11-11T17:50:02.311Z,11.60
2018-11-11T17:52:37.970Z,11.70
2018-11-11T17:55:14.884Z,11.70
2018-11-11T17:57:50.322Z,11.70
2018-11-11T18:00:26.630Z,11.70
2018-11-11T18:03:02.704Z,11.70
2018-11-11T18:05:38.048Z,11.60
2018-11-11T18:08:13.896Z,11.60
2018-11-11T18:10:49.400Z,11.60
2018-11-11T18:13:24.819Z,11.70
2018-11-11T18:16:00.342Z,11.70
2018-11-11T18:18:35.870Z,11.70
2018-11-11T18:21:11.433Z,11.70
2018-11-11T18:23:46.874Z,11.70
2018-11-11T18:26:22.198Z,11.70
2018-11-11T18:28:57.459Z,11.80
2018-11-11T18:31:33.184Z,11.90
2018-11-11T18:34:08.823Z,11.90
2018-11-11T18:36:43.994Z,11.90
2018-11-11T18:39:19.549Z,12.00
2018-11-11T18:41:54.935Z,11.90
2018-11-11T18:44:30.463Z,12.00
2018-11-11T18:47:06.004Z,11.90
2018-11-11T18:49:41.282Z,11.90
2018-11-11T18:52:16.690Z,12.00
2018-11-11T18:54:51.984Z,11.90
2018-11-11T18:57:27.392Z,11.90
2018-11-11T19:00:02.724Z,12.00
2018-11-11T19:02:38.114Z,12.00
2018-11-11T19:05:14.582Z,12.00
2018-11-11T19:07:50.257Z,12.00
2018-11-11T19:10:27.021Z,12.00
2018-11-11T19:13:08.835Z,12.00
2018-11-11T19:15:44.372Z,12.00
2018-11-11T19:18:19.695Z,12.00
2018-11-11T19:20:55.158Z,12.10
2018-11-11T19:23:30.696Z,12.10
2018-11-11T19:26:06.760Z,12.10
2018-11-11T19:28:42.115Z,12.00
2018-11-11T19:31:17.361Z,12.10
2018-11-11T19:33:52.854Z,12.10
2018-11-11T19:36:28.267Z,12.00
2018-11-11T19:39:03.791Z,12.10
2018-11-11T19:41:39.808Z,12.10
2018-11-11T19:44:15.419Z,12.10
2018-11-11T19:46:50.835Z,12.10
2018-11-11T19:49:26.435Z,12.10
2018-11-11T19:52:01.847Z,12.10
2018-11-11T19:54:37.254Z,12.20
2018-11-11T19:57:12.592Z,12.10
2018-11-11T19:59:47.893Z,12.10
2018-11-11T20:02:23.094Z,12.10
2018-11-11T20:04:58.464Z,12.00
2018-11-11T20:07:33.805Z,12.10
2018-11-11T20:10:11.006Z,12.10
2018-11-11T20:12:46.534Z,12.10
2018-11-11T20:15:23.485Z,12.10
2018-11-11T20:17:58.993Z,12.10
2018-11-11T20:20:36.664Z,12.10
2018-11-11T20:23:12.272Z,12.10
2018-11-11T20:25:47.843Z,12.00
2018-11-11T20:28:23.505Z,12.00
2018-11-11T20:30:59.000Z,12.00
2018-11-11T20:33:34.568Z,11.90
2018-11-11T20:36:10.006Z,12.00
2018-11-11T20:38:45.461Z,12.00
2018-11-11T20:41:20.797Z,12.00
2018-11-11T20:43:56.371Z,11.90
2018-11-11T20:46:31.881Z,12.00
2018-11-11T20:49:07.587Z,12.00
2018-11-11T20:51:43.135Z,12.00
2018-11-11T20:54:18.656Z,12.00
2018-11-11T20:56:54.105Z,12.00
2018-11-11T20:59:29.341Z,12.00
2018-11-11T21:02:04.666Z,12.00
2018-11-11T21:04:40.120Z,12.00
2018-11-11T21:07:15.552Z,12.00
2018-11-11T21:09:50.870Z,12.00
2018-11-11T21:12:26.324Z,12.00
2018-11-11T21:15:01.807Z,12.00
2018-11-11T21:17:37.231Z,11.90
2018-11-11T21:20:14.943Z,12.00
2018-11-11T21:22:50.530Z,12.00
2018-11-11T21:25:26.068Z,12.10
2018-11-11T21:28:01.541Z,12.00
2018-11-11T21:30:36.960Z,12.00
2018-11-11T21:33:12.331Z,12.00
2018-11-11T21:35:48.012Z,12.00
2018-11-11T21:38:23.553Z,12.00
2018-11-11T21:40:59.313Z,12.00
2018-11-11T21:43:34.873Z,12.00
2018-11-11T21:46:10.231Z,12.10
2018-11-11T21:48:45.441Z,12.00
2018-11-11T21:51:20.903Z,12.10
2018-11-11T21:53:56.493Z,12.00
2018-11-11T21:56:31.790Z,12.10
2018-11-11T21:59:07.498Z,12.10
2018-11-11T22:01:43.108Z,12.00
2018-11-11T22:04:18.554Z,12.10
2018-11-11T22:06:53.995Z,12.00
2018-11-11T22:09:29.482Z,12.00
2018-11-11T22:12:05.021Z,12.00
2018-11-11T22:14:40.193Z,11.90
2018-11-11T22:17:15.660Z,11.90
2018-11-11T22:19:50.994Z,11.90
2018-11-11T22:22:26.348Z,11.80
2018-11-11T22:25:01.451Z,11.80
2018-11-11T22:27:37.173Z,11.80
2018-11-11T22:30:12.868Z,11.80
2018-11-11T22:32:48.240Z,11.80
2018-11-11T22:35:23.555Z,11.80
2018-11-11T22:37:58.891Z,11.70
2018-11-11T22:40:34.232Z,11.70
2018-11-11T22:43:09.680Z,11.70
2018-11-11T22:45:45.129Z,11.50
2018-11-11T22:48:20.893Z,11.50
2018-11-11T22:50:56.335Z,11.50
2018-11-11T22:53:31.895Z,11.50
2018-11-11T22:56:07.416Z,11.40
2018-11-11T22:58:42.851Z,11.40
2018-11-11T23:01:22.315Z,11.30
2018-11-11T23:03:57.851Z,11.30
2018-11-11T23:06:33.183Z,11.20
2018-11-11T23:09:10.861Z,11.30
2018-11-11T23:11:46.990Z,11.20
2018-11-11T23:14:22.292Z,11.30
2018-11-11T23:16:57.526Z,11.20
2018-11-11T23:19:33.095Z,11.20
2018-11-11T23:22:08.724Z,11.10
2018-11-11T23:24:44.393Z,11.00
2018-11-11T23:27:20.192Z,10.90
2018-11-11T23:29:55.891Z,10.90
2018-11-11T23:32:31.561Z,10.90
2018-11-11T23:35:07.653Z,11.00
2018-11-11T23:37:43.420Z,10.90
2018-11-11T23:40:19.640Z,10.90
2018-11-11T23:42:55.059Z,10.90
2018-11-11T23:45:30.705Z,10.80
2018-11-11T23:48:06.853Z,10.70
2018-11-11T23:50:42.155Z,10.70
2018-11-11T23:53:17.685Z,10.80
2018-11-11T23:55:53.124Z,10.70
2018-11-11T23:58:28.346Z,10.70
